createdAt,value
2023-03-10T00:00:34.322Z,96872.95
2023-03-10T00:03:22.891Z,96870.86
2023-03-10T00:05:52.363Z,96866.73
2023-03-10T00:08:22.095Z,96864.89
2023-03-10T00:10:51.130Z,96867.21
2023-03-10T00:13:21.481Z,96864.77
2023-03-10T00:15:50.793Z,96867.89
2023-03-10T00:18:21.129Z,96869.33
2023-03-10T00:20:55.246Z,96871.87
2023-03-10T00:23:25.841Z,96869.55
2023-03-10T00:26:01.502Z,96871.53
2023-03-10T00:28:33.937Z,96871.02
2023-03-10T00:31:07.400Z,96873.59
2023-03-10T00:33:40.700Z,96868.77
2023-03-10T00:36:19.576Z,96873.10
2023-03-10T00:38:54.905Z,96875.23
2023-03-10T00:41:27.644Z,96869.96
2023-03-10T00:43:58.998Z,96863.16
2023-03-10T00:46:30.412Z,96856.04
2023-03-10T00:49:00.208Z,96855.55
2023-03-10T00:51:30.055Z,96848.48
2023-03-10T00:54:02.963Z,96848.58
2023-03-10T00:56:32.186Z,96846.62
2023-03-10T00:59:02.068Z,96847.35
2023-03-10T01:01:37.128Z,96844.90
2023-03-10T01:04:11.583Z,96848.55
2023-03-10T01:06:42.716Z,96848.71
2023-03-10T01:09:14.118Z,96849.26
2023-03-10T01:11:45.000Z,96846.44
2023-03-10T01:14:16.610Z,96841.28
2023-03-10T01:16:46.306Z,96833.60
2023-03-10T01:19:18.568Z,96835.19
2023-03-10T01:21:47.705Z,96836.54
2023-03-10T01:24:17.777Z,96836.55
2023-03-10T01:26:51.594Z,96840.14
2023-03-10T01:29:22.436Z,96836.89
2023-03-10T01:31:53.097Z,96842.02
2023-03-10T01:34:23.819Z,96847.95
2023-03-10T01:36:54.165Z,96850.29
2023-03-10T01:39:24.787Z,96847.48
2023-03-10T01:41:54.784Z,96850.71
2023-03-10T01:44:23.952Z,96851.46
2023-03-10T01:46:59.609Z,96852.85
2023-03-10T01:49:40.444Z,96848.88
2023-03-10T01:52:17.001Z,96840.17
2023-03-10T01:54:55.281Z,96837.31
2023-03-10T01:57:33.572Z,96842.16
2023-03-10T02:00:12.269Z,96845.98
2023-03-10T02:02:57.042Z,96848.11
2023-03-10T02:05:27.727Z,96852.07
2023-03-10T02:08:01.677Z,96858.80
2023-03-10T02:10:30.862Z,96852.80
2023-03-10T02:13:00.572Z,96858.86
2023-03-10T02:15:30.802Z,96857.13
2023-03-10T02:18:05.280Z,96857.79
2023-03-10T02:20:53.033Z,96860.63
2023-03-10T02:24:00.336Z,96856.00
2023-03-10T02:26:58.455Z,96852.80
2023-03-10T02:29:45.537Z,96851.65
2023-03-10T02:32:35.661Z,96857.36
2023-03-10T02:35:06.481Z,96856.88
2023-03-10T02:37:38.356Z,96857.84
2023-03-10T02:40:34.164Z,96861.14
2023-03-10T02:43:19.778Z,96866.30
2023-03-10T02:45:56.112Z,96868.58
2023-03-10T02:48:34.576Z,96868.55
2023-03-10T02:51:13.498Z,96867.55
2023-03-10T02:53:43.758Z,96867.75
2023-03-10T02:56:13.663Z,96863.65
2023-03-10T02:58:44.692Z,96860.15
2023-03-10T03:01:15.402Z,96855.79
2023-03-10T03:03:44.848Z,96860.16
2023-03-10T03:06:14.826Z,96862.41
2023-03-10T03:08:45.201Z,96865.13
2023-03-10T03:11:17.566Z,96860.07
2023-03-10T03:13:46.635Z,96859.21
2023-03-10T03:16:17.533Z,96853.48
2023-03-10T03:18:48.730Z,96853.85
2023-03-10T03:21:21.816Z,96851.03
2023-03-10T03:23:51.889Z,96853.33
2023-03-10T03:26:24.881Z,96855.77
2023-03-10T03:28:58.572Z,96857.56
2023-03-10T03:31:32.431Z,96853.49
2023-03-10T03:34:13.292Z,96852.31
2023-03-10T03:36:44.272Z,96848.03
2023-03-10T03:39:17.903Z,96847.41
2023-03-10T03:41:53.920Z,96842.94
2023-03-10T03:44:25.491Z,96844.89
2023-03-10T03:46:56.167Z,96842.99
2023-03-10T03:49:26.603Z,96837.46
2023-03-10T03:51:56.940Z,96830.49
2023-03-10T03:54:27.147Z,96831.13
2023-03-10T03:56:56.380Z,96831.50
2023-03-10T03:59:25.689Z,96826.90
2023-03-10T04:01:55.224Z,96832.48
2023-03-10T04:04:25.887Z,96830.89
2023-03-10T04:06:57.580Z,96830.55
2023-03-10T04:09:26.733Z,96834.14
2023-03-10T04:12:00.039Z,96828.55
2023-03-10T04:14:29.759Z,96832.31
2023-03-10T04:16:59.751Z,96829.52
2023-03-10T04:19:29.440Z,96823.05
2023-03-10T04:22:05.171Z,96825.14
2023-03-10T04:24:35.151Z,96823.11
2023-03-10T04:27:12.267Z,96821.86
2023-03-10T04:29:43.010Z,96821.05
2023-03-10T04:32:13.483Z,96814.63
2023-03-10T04:34:44.673Z,96815.67
2023-03-10T04:37:15.992Z,96812.56
2023-03-10T04:39:45.462Z,96809.73
2023-03-10T04:42:18.297Z,96809.50
2023-03-10T04:44:49.143Z,96805.14
2023-03-10T04:47:19.282Z,96805.82
2023-03-10T04:49:49.303Z,96809.98
2023-03-10T04:52:19.595Z,96808.58
2023-03-10T04:54:51.023Z,96808.17
2023-03-10T04:57:25.154Z,96809.48
2023-03-10T05:00:34.864Z,96809.80
2023-03-10T05:03:07.127Z,96805.95
2023-03-10T05:05:37.731Z,96807.52
2023-03-10T05:08:08.912Z,96805.92
2023-03-10T05:10:48.202Z,96808.58
2023-03-10T05:13:17.940Z,96806.23
2023-03-10T05:15:51.077Z,96807.23
2023-03-10T05:18:22.051Z,96807.52
2023-03-10T05:20:59.102Z,96801.03
2023-03-10T05:23:31.230Z,96804.24
2023-03-10T05:26:13.284Z,96808.34
2023-03-10T05:28:43.259Z,96816.10
2023-03-10T05:31:16.489Z,96814.91
2023-03-10T05:33:48.517Z,96818.86
2023-03-10T05:36:17.912Z,96824.87
2023-03-10T05:38:48.173Z,96826.28
2023-03-10T05:41:19.109Z,96823.57
2023-03-10T05:43:50.646Z,96825.21
2023-03-10T05:46:24.394Z,96825.88
2023-03-10T05:48:57.745Z,96822.55
2023-03-10T05:51:32.923Z,96826.45
2023-03-10T05:54:09.615Z,96828.97
2023-03-10T05:56:39.103Z,96823.48
2023-03-10T05:59:08.985Z,96820.71
2023-03-10T06:01:40.489Z,96818.86
2023-03-10T06:04:09.877Z,96826.66
2023-03-10T06:06:42.405Z,96825.60
2023-03-10T06:09:14.933Z,96824.83
2023-03-10T06:11:50.187Z,96822.81
2023-03-10T06:14:19.605Z,96826.61
2023-03-10T06:16:53.197Z,96829.11
2023-03-10T06:19:33.038Z,96831.55
2023-03-10T06:22:03.482Z,96830.69
2023-03-10T06:24:40.412Z,96826.19
2023-03-10T06:27:13.132Z,96828.55
2023-03-10T06:29:44.426Z,96829.70
2023-03-10T06:32:14.063Z,96830.50
2023-03-10T06:34:43.510Z,96826.93
2023-03-10T06:37:14.682Z,96823.48
2023-03-10T06:39:46.076Z,96824.26
2023-03-10T06:42:15.126Z,96818.73
2023-03-10T06:44:46.085Z,96812.57
2023-03-10T06:47:16.639Z,96806.95
2023-03-10T06:49:45.930Z,96809.44
2023-03-10T06:52:15.263Z,96812.23
2023-03-10T06:54:45.267Z,96804.13
2023-03-10T06:57:14.589Z,96802.98
2023-03-10T06:59:44.233Z,96798.96
2023-03-10T07:02:22.339Z,96791.11
2023-03-10T07:05:03.719Z,96793.94
2023-03-10T07:07:52.897Z,96792.95
2023-03-10T07:10:23.180Z,96788.39
2023-03-10T07:13:03.606Z,96781.45
2023-03-10T07:15:32.934Z,96777.91
2023-03-10T07:18:28.282Z,96768.62
2023-03-10T07:20:59.321Z,96761.44
2023-03-10T07:23:28.867Z,96760.00
2023-03-10T07:26:04.623Z,96754.45
2023-03-10T07:28:39.423Z,96752.06
2023-03-10T07:31:11.322Z,96752.15
2023-03-10T07:33:41.497Z,96752.48
2023-03-10T07:36:15.586Z,96754.06
2023-03-10T07:38:45.253Z,96755.44
2023-03-10T07:41:17.591Z,96758.45
2023-03-10T07:43:47.968Z,96757.22
2023-03-10T07:46:18.366Z,96752.27
2023-03-10T07:48:49.885Z,96751.83
2023-03-10T07:51:20.526Z,96746.36
2023-03-10T07:53:49.678Z,96739.45
2023-03-10T07:56:18.776Z,96733.45
2023-03-10T07:58:52.055Z,96730.77
2023-03-10T08:01:23.088Z,96729.19
2023-03-10T08:03:55.340Z,96729.59
2023-03-10T08:06:28.360Z,96728.20
2023-03-10T08:08:58.548Z,96719.86
2023-03-10T08:11:29.938Z,96712.97
2023-03-10T08:13:59.102Z,96706.26
2023-03-10T08:16:29.323Z,96699.59
2023-03-10T08:18:58.536Z,96689.66
2023-03-10T08:21:27.731Z,96683.94
2023-03-10T08:23:57.530Z,96681.63
2023-03-10T08:26:27.564Z,96677.14
2023-03-10T08:28:58.241Z,96670.91
2023-03-10T08:31:28.466Z,96670.88
2023-03-10T08:33:59.449Z,96661.20
2023-03-10T08:36:31.195Z,96656.02
2023-03-10T08:39:02.849Z,96655.15
2023-03-10T08:41:36.404Z,96649.71
2023-03-10T08:44:07.831Z,96647.25
2023-03-10T08:46:46.786Z,96644.89
2023-03-10T08:49:21.202Z,96641.03
2023-03-10T08:51:50.461Z,96635.98
2023-03-10T08:54:22.205Z,96632.52
2023-03-10T08:56:51.677Z,96635.92
2023-03-10T08:59:23.273Z,96630.66
2023-03-10T09:01:53.448Z,96627.17
2023-03-10T09:04:23.147Z,96624.60
2023-03-10T09:06:52.216Z,96621.65
2023-03-10T09:09:21.949Z,96622.05
2023-03-10T09:11:52.596Z,96615.80
2023-03-10T09:14:24.280Z,96611.71
2023-03-10T09:17:00.370Z,96611.80
2023-03-10T09:19:29.597Z,96615.11
2023-03-10T09:21:59.915Z,96616.38
2023-03-10T09:24:29.206Z,96616.41
2023-03-10T09:26:58.474Z,96614.80
2023-03-10T09:29:42.157Z,96611.89
2023-03-10T09:32:13.806Z,96606.64
2023-03-10T09:34:43.201Z,96606.82
2023-03-10T09:37:12.295Z,96601.94
2023-03-10T09:39:42.953Z,96596.90
2023-03-10T09:42:40.425Z,96595.20
2023-03-10T09:45:27.106Z,96592.93
2023-03-10T09:48:03.808Z,96592.58
2023-03-10T09:50:40.252Z,96587.75
2023-03-10T09:53:26.209Z,96587.21
2023-03-10T09:56:03.502Z,96591.58
2023-03-10T09:58:38.504Z,96593.58
2023-03-10T10:01:25.898Z,96587.20
2023-03-10T10:04:08.556Z,96576.83
2023-03-10T10:06:40.472Z,96578.39
2023-03-10T10:09:25.656Z,96573.45
2023-03-10T10:11:56.675Z,96569.75
2023-03-10T10:14:32.067Z,96572.14
2023-03-10T10:17:35.477Z,96570.83
2023-03-10T10:20:32.329Z,96568.08
2023-03-10T10:23:02.055Z,96564.69
2023-03-10T10:25:33.112Z,96552.80
2023-03-10T10:28:05.411Z,96541.20
2023-03-10T10:30:42.380Z,96535.45
2023-03-10T10:33:15.065Z,96528.54
2023-03-10T10:36:02.926Z,96535.30
2023-03-10T10:38:33.374Z,96533.02
2023-03-10T10:41:18.172Z,96529.35
2023-03-10T10:43:48.886Z,96530.52
2023-03-10T10:46:30.326Z,96535.46
2023-03-10T10:49:23.944Z,96536.93
2023-03-10T10:52:06.004Z,96532.36
2023-03-10T10:54:44.315Z,96525.10
2023-03-10T10:57:22.677Z,96512.38
2023-03-10T10:59:52.390Z,96504.51
2023-03-10T11:02:25.298Z,96498.38
2023-03-10T11:05:18.715Z,96500.64
2023-03-10T11:07:54.130Z,96495.01
2023-03-10T11:10:33.378Z,96491.25
2023-03-10T11:13:22.423Z,96487.32
2023-03-10T11:15:57.985Z,96483.80
2023-03-10T11:18:59.055Z,96485.89
2023-03-10T11:21:32.047Z,96478.73
2023-03-10T11:24:20.745Z,96477.39
2023-03-10T11:27:02.140Z,96472.92
2023-03-10T11:30:03.062Z,96463.10
2023-03-10T11:32:42.904Z,96457.74
2023-03-10T11:35:30.537Z,96452.88
2023-03-10T11:38:25.296Z,96452.75
2023-03-10T11:41:01.272Z,96438.23
2023-03-10T11:44:04.234Z,96435.63
2023-03-10T11:46:51.160Z,96425.09
2023-03-10T11:49:28.400Z,96414.84
2023-03-10T11:52:09.357Z,96416.30
2023-03-10T11:55:06.422Z,96411.05
2023-03-10T11:57:44.721Z,96410.36
2023-03-10T12:00:33.400Z,96407.90
2023-03-10T12:03:21.218Z,96406.20
2023-03-10T12:06:00.535Z,96400.02
2023-03-10T12:08:35.677Z,96399.17
2023-03-10T12:11:17.907Z,96402.55
2023-03-10T12:14:00.827Z,96393.14
2023-03-10T12:16:37.434Z,96387.46
2023-03-10T12:19:08.715Z,96386.90
2023-03-10T12:21:38.810Z,96389.33
2023-03-10T12:24:47.794Z,96386.48
2023-03-10T12:27:18.196Z,96387.64
2023-03-10T12:29:48.106Z,96386.75
2023-03-10T12:32:43.780Z,96382.67
2023-03-10T12:35:47.974Z,96379.00
2023-03-10T12:38:43.067Z,96371.38
2023-03-10T12:41:44.933Z,96372.93
2023-03-10T12:44:36.619Z,96366.06
2023-03-10T12:47:34.492Z,96359.38
2023-03-10T12:50:42.682Z,96352.31
2023-03-10T12:53:14.671Z,96349.31
2023-03-10T12:56:18.329Z,96352.68
2023-03-10T12:59:15.765Z,96350.80
2023-03-10T13:01:55.914Z,96348.58
2023-03-10T13:04:33.323Z,96345.66
2023-03-10T13:07:17.182Z,96344.89
2023-03-10T13:09:50.558Z,96338.87
2023-03-10T13:12:38.071Z,96337.75
2023-03-10T13:15:24.623Z,96330.85
2023-03-10T13:18:21.168Z,96320.05
2023-03-10T13:20:51.097Z,96313.64
2023-03-10T13:23:28.402Z,96309.79
2023-03-10T13:26:09.654Z,96305.33
2023-03-10T13:28:55.236Z,96299.69
2023-03-10T13:31:31.764Z,96295.12
2023-03-10T13:34:28.752Z,96294.70
2023-03-10T13:37:27.197Z,96287.36
2023-03-10T13:40:11.848Z,96284.21
2023-03-10T13:42:45.325Z,96281.54
2023-03-10T13:45:23.997Z,96281.83
2023-03-10T13:47:55.538Z,96288.98
2023-03-10T13:50:25.217Z,96283.20
2023-03-10T13:53:00.260Z,96281.54
2023-03-10T13:55:42.427Z,96276.70
2023-03-10T13:58:14.231Z,96275.42
2023-03-10T14:00:49.409Z,96270.00
2023-03-10T14:03:21.164Z,96269.75
2023-03-10T14:05:50.812Z,96263.27
2023-03-10T14:08:31.343Z,96262.71
2023-03-10T14:11:22.516Z,96266.93
2023-03-10T14:13:52.564Z,96261.67
2023-03-10T14:16:58.204Z,96259.17
2023-03-10T14:19:43.718Z,96253.63
2023-03-10T14:22:26.206Z,96247.70
2023-03-10T14:24:59.353Z,96249.01
2023-03-10T14:27:29.434Z,96243.76
2023-03-10T14:30:02.848Z,96237.83
2023-03-10T14:32:54.766Z,96238.39
2023-03-10T14:35:25.899Z,96232.37
2023-03-10T14:37:58.494Z,96228.98
2023-03-10T14:40:28.121Z,96226.93
2023-03-10T14:43:01.663Z,96221.05
2023-03-10T14:45:34.931Z,96216.73
2023-03-10T14:48:18.350Z,96215.94
2023-03-10T14:50:51.018Z,96210.02
2023-03-10T14:53:58.612Z,96203.35
2023-03-10T14:56:28.900Z,96203.09
2023-03-10T14:59:11.034Z,96200.25
2023-03-10T15:01:46.286Z,96197.02
2023-03-10T15:04:23.120Z,96195.29
2023-03-10T15:06:59.770Z,96192.76
2023-03-10T15:09:32.482Z,96185.92
2023-03-10T15:12:02.058Z,96185.05
2023-03-10T15:14:35.877Z,96184.23
2023-03-10T15:17:13.344Z,96178.41
2023-03-10T15:19:44.045Z,96171.64
2023-03-10T15:22:13.199Z,96165.77
2023-03-10T15:24:54.875Z,96166.58
2023-03-10T15:27:34.748Z,96161.78
2023-03-10T15:30:05.026Z,96158.70
2023-03-10T15:32:34.574Z,96155.01
2023-03-10T15:35:04.892Z,96150.43
2023-03-10T15:37:34.344Z,96145.77
2023-03-10T15:40:05.551Z,96142.77
2023-03-10T15:42:34.814Z,96139.61
2023-03-10T15:45:16.535Z,96137.05
2023-03-10T15:47:50.448Z,96133.02
2023-03-10T15:50:28.173Z,96127.89
2023-03-10T15:53:01.140Z,96124.86
2023-03-10T15:55:38.785Z,96118.80
2023-03-10T15:58:16.912Z,96115.23
2023-03-10T16:00:46.784Z,96110.59
2023-03-10T16:03:18.411Z,96108.41
2023-03-10T16:05:50.509Z,96104.60
2023-03-10T16:08:20.450Z,96100.27
2023-03-10T16:10:55.992Z,96097.38
2023-03-10T16:13:29.173Z,96093.34
2023-03-10T16:16:24.195Z,96089.54
2023-03-10T16:18:58.322Z,96082.98
2023-03-10T16:21:31.358Z,96084.23
2023-03-10T16:24:00.950Z,96082.17
2023-03-10T16:26:30.854Z,96074.27
2023-03-10T16:29:01.359Z,96074.60
2023-03-10T16:31:31.700Z,96072.31
2023-03-10T16:34:01.045Z,96069.34
2023-03-10T16:36:30.957Z,96066.83
2023-03-10T16:39:10.300Z,96062.07
2023-03-10T16:41:55.812Z,96066.14
2023-03-10T16:44:28.551Z,96063.30
2023-03-10T16:46:58.160Z,96065.20
2023-03-10T16:49:45.691Z,96056.89
2023-03-10T16:52:18.560Z,96053.46
2023-03-10T16:54:48.948Z,96052.58
2023-03-10T16:57:18.481Z,96052.55
2023-03-10T17:00:13.064Z,96046.13
2023-03-10T17:02:45.531Z,96045.52
2023-03-10T17:05:19.942Z,96040.97
2023-03-10T17:08:01.187Z,96035.79
2023-03-10T17:10:45.814Z,96039.31
2023-03-10T17:13:39.659Z,96036.38
2023-03-10T17:16:56.683Z,96031.87
2023-03-10T17:23:09.169Z,96034.84
2023-03-10T17:25:52.506Z,96030.60
2023-03-10T17:28:28.832Z,96027.77
2023-03-10T17:30:57.901Z,96021.22
2023-03-10T17:33:27.043Z,96018.98
2023-03-10T17:35:56.320Z,96022.06
2023-03-10T17:38:32.045Z,96020.42
2023-03-10T17:41:10.775Z,96018.05
2023-03-10T17:43:40.613Z,96017.77
2023-03-10T17:46:25.719Z,96014.24
2023-03-10T17:48:58.634Z,96011.12
2023-03-10T17:51:32.622Z,96009.24
2023-03-10T17:54:02.579Z,96008.02
2023-03-10T17:56:39.054Z,96004.66
2023-03-10T17:59:11.324Z,96003.30
2023-03-10T18:01:43.537Z,96001.38
2023-03-10T18:04:33.591Z,96001.16
2023-03-10T18:07:44.017Z,95998.98
2023-03-10T18:10:19.950Z,95991.95
2023-03-10T18:12:51.226Z,95992.98
2023-03-10T18:15:36.126Z,95989.18
2023-03-10T18:18:20.716Z,95989.36
2023-03-10T18:21:03.655Z,95985.77
2023-03-10T18:23:45.697Z,95988.27
2023-03-10T18:26:30.205Z,95978.80
2023-03-10T18:29:03.050Z,95974.46
2023-03-10T18:31:36.747Z,95969.65
2023-03-10T18:34:06.352Z,95969.42
2023-03-10T18:36:35.776Z,95965.41
2023-03-10T18:39:08.230Z,95969.66
2023-03-10T18:41:37.664Z,95965.11
2023-03-10T18:44:07.264Z,95961.44
2023-03-10T18:46:37.652Z,95961.02
2023-03-10T18:49:12.496Z,95956.86
2023-03-10T18:51:43.986Z,95953.36
2023-03-10T18:54:31.226Z,95952.20
2023-03-10T18:57:25.445Z,95951.34
2023-03-10T19:00:10.357Z,95952.86
2023-03-10T19:02:44.209Z,95954.38
2023-03-10T19:05:40.493Z,95950.85
2023-03-10T19:08:40.490Z,95941.45
2023-03-10T19:11:16.331Z,95937.71
2023-03-10T19:13:52.446Z,95934.21
2023-03-10T19:16:25.474Z,95936.23
2023-03-10T19:18:57.784Z,95934.69
2023-03-10T19:21:27.938Z,95932.60
2023-03-10T19:24:23.418Z,95931.02
2023-03-10T19:26:59.454Z,95933.09
2023-03-10T19:29:29.903Z,95931.16
2023-03-10T19:32:06.751Z,95931.49
2023-03-10T19:34:37.646Z,95929.09
2023-03-10T19:37:06.810Z,95926.81
2023-03-10T19:39:52.559Z,95922.05
2023-03-10T19:42:33.797Z,95918.98
2023-03-10T19:45:39.958Z,95918.91
2023-03-10T19:48:22.926Z,95915.88
2023-03-10T19:50:58.945Z,95906.56
2023-03-10T19:53:30.844Z,95904.23
2023-03-10T19:56:04.173Z,95905.46
2023-03-10T19:58:46.962Z,95903.12
2023-03-10T20:01:56.032Z,95906.49
2023-03-10T20:04:35.516Z,95902.91
2023-03-10T20:07:18.523Z,95905.09
2023-03-10T20:10:06.996Z,95905.11
2023-03-10T20:12:56.713Z,95899.39
2023-03-10T20:15:26.962Z,95895.11
2023-03-10T20:18:06.194Z,95891.48
2023-03-10T20:20:35.348Z,95881.04
2023-03-10T20:23:04.881Z,95881.42
2023-03-10T20:25:33.882Z,95882.57
2023-03-10T20:28:02.972Z,95881.15
2023-03-10T20:30:33.285Z,95882.58
2023-03-10T20:33:03.501Z,95879.05
2023-03-10T20:35:33.943Z,95876.88
2023-03-10T20:38:04.473Z,95871.21
2023-03-10T20:40:33.556Z,95865.04
2023-03-10T20:43:02.725Z,95859.83
2023-03-10T20:45:33.241Z,95861.64
2023-03-10T20:48:02.866Z,95861.47
2023-03-10T20:50:55.394Z,95858.91
2023-03-10T20:53:40.190Z,95856.58
2023-03-10T20:56:11.948Z,95853.13
2023-03-10T20:58:41.187Z,95845.83
2023-03-10T21:01:21.887Z,95844.27
2023-03-10T21:04:00.138Z,95834.55
2023-03-10T21:06:29.750Z,95831.37
2023-03-10T21:09:02.066Z,95827.76
2023-03-10T21:11:31.380Z,95827.33
2023-03-10T21:14:01.059Z,95827.91
2023-03-10T21:16:30.398Z,95825.77
2023-03-10T21:18:59.653Z,95827.23
2023-03-10T21:21:32.153Z,95826.52
2023-03-10T21:24:03.994Z,95822.83
2023-03-10T21:26:33.815Z,95820.14
2023-03-10T21:29:04.225Z,95817.27
2023-03-10T21:31:33.416Z,95815.16
2023-03-10T21:34:03.628Z,95811.27
2023-03-10T21:36:33.283Z,95814.19
2023-03-10T21:39:09.700Z,95815.63
2023-03-10T21:41:40.338Z,95813.08
2023-03-10T21:44:11.489Z,95812.15
2023-03-10T21:46:41.459Z,95808.80
2023-03-10T21:49:11.819Z,95804.60
2023-03-10T21:51:42.388Z,95799.39
2023-03-10T21:54:11.654Z,95796.79
2023-03-10T21:56:42.051Z,95790.91
2023-03-10T21:59:11.207Z,95793.40
2023-03-10T22:01:41.331Z,95790.39
2023-03-10T22:04:12.955Z,95792.39
2023-03-10T22:06:43.012Z,95791.61
2023-03-10T22:09:12.767Z,95790.46
2023-03-10T22:11:42.916Z,95791.34
2023-03-10T22:14:13.723Z,95791.64
2023-03-10T22:16:45.106Z,95785.34
2023-03-10T22:19:14.648Z,95780.67
2023-03-10T22:21:46.788Z,95779.18
2023-03-10T22:24:17.535Z,95779.05
2023-03-10T22:26:46.579Z,95781.27
2023-03-10T22:29:16.320Z,95780.80
2023-03-10T22:31:45.864Z,95776.68
2023-03-10T22:34:15.993Z,95780.47
2023-03-10T22:36:45.544Z,95781.70
2023-03-10T22:39:16.044Z,95774.69
2023-03-10T22:41:46.348Z,95776.28
2023-03-10T22:44:21.443Z,95773.44
2023-03-10T22:46:50.538Z,95774.60
2023-03-10T22:49:22.790Z,95781.69
2023-03-10T22:51:53.311Z,95776.38
2023-03-10T22:54:23.640Z,95776.77
2023-03-10T22:56:53.380Z,95768.46
2023-03-10T22:59:23.212Z,95758.14
2023-03-10T23:01:52.197Z,95760.66
2023-03-10T23:04:21.944Z,95756.27
2023-03-10T23:06:51.852Z,95759.98
2023-03-10T23:09:22.950Z,95757.26
2023-03-10T23:11:55.197Z,95755.56
2023-03-10T23:14:27.803Z,95755.76
2023-03-10T23:16:58.251Z,95757.84
2023-03-10T23:19:28.258Z,95759.39
2023-03-10T23:21:57.341Z,95760.86
2023-03-10T23:24:27.037Z,95756.05
2023-03-10T23:26:56.745Z,95754.46
2023-03-10T23:29:25.973Z,95756.39
2023-03-10T23:31:55.700Z,95752.80
2023-03-10T23:34:25.378Z,95748.52
2023-03-10T23:36:57.775Z,95740.99
2023-03-10T23:39:29.772Z,95736.23
2023-03-10T23:41:59.141Z,95733.10
2023-03-10T23:44:29.230Z,95733.83
2023-03-10T23:46:58.350Z,95735.56
2023-03-10T23:49:28.050Z,95734.83
2023-03-10T23:51:58.994Z,95732.83
2023-03-10T23:54:30.823Z,95729.45
2023-03-10T23:57:00.215Z,95732.21
2023-03-10T23:59:30.865Z,95729.07
